sensor_id;sensor_type;location;lat;lon;timestamp;pressure;altitude;pressure_sealevel;temperature;humidity
57048;BME280;42934;54.294;18.598;2023-09-12T00:01:51;100543.97;;;17.60;88.96
57048;BME280;42934;54.294;18.598;2023-09-12T00:04:20;100536.94;;;17.59;88.84
57048;BME280;42934;54.294;18.598;2023-09-12T00:06:50;100535.44;;;17.55;89.16
57048;BME280;42934;54.294;18.598;2023-09-12T00:09:19;100533.34;;;17.60;88.66
57048;BME280;42934;54.294;18.598;2023-09-12T00:11:48;100543.00;;;17.61;88.62
57048;BME280;42934;54.294;18.598;2023-09-12T00:14:19;100538.47;;;17.63;88.33
57048;BME280;42934;54.294;18.598;2023-09-12T00:16:48;100535.69;;;17.64;88.15
57048;BME280;42934;54.294;18.598;2023-09-12T00:19:19;100532.84;;;17.67;88.19
57048;BME280;42934;54.294;18.598;2023-09-12T00:21:48;100528.28;;;17.69;87.96
57048;BME280;42934;54.294;18.598;2023-09-12T00:24:17;100522.97;;;17.69;88.12
57048;BME280;42934;54.294;18.598;2023-09-12T00:26:47;100535.28;;;17.70;88.30
57048;BME280;42934;54.294;18.598;2023-09-12T00:29:17;100528.19;;;17.71;88.54
57048;BME280;42934;54.294;18.598;2023-09-12T00:31:47;100537.22;;;17.68;88.62
57048;BME280;42934;54.294;18.598;2023-09-12T00:34:16;100533.03;;;17.64;88.69
57048;BME280;42934;54.294;18.598;2023-09-12T00:36:46;100534.56;;;17.68;88.96
57048;BME280;42934;54.294;18.598;2023-09-12T00:39:15;100528.41;;;17.68;88.95
57048;BME280;42934;54.294;18.598;2023-09-12T00:41:44;100527.44;;;17.69;89.04
57048;BME280;42934;54.294;18.598;2023-09-12T00:44:13;100523.09;;;17.68;88.92
57048;BME280;42934;54.294;18.598;2023-09-12T00:46:45;100519.28;;;17.72;88.84
57048;BME280;42934;54.294;18.598;2023-09-12T00:49:15;100518.44;;;17.71;88.88
57048;BME280;42934;54.294;18.598;2023-09-12T00:51:45;100520.72;;;17.78;89.02
57048;BME280;42934;54.294;18.598;2023-09-12T00:54:15;100517.47;;;17.73;88.98
57048;BME280;42934;54.294;18.598;2023-09-12T00:56:45;100513.97;;;17.72;89.05
57048;BME280;42934;54.294;18.598;2023-09-12T00:59:16;100512.16;;;17.73;89.04
57048;BME280;42934;54.294;18.598;2023-09-12T01:01:47;100511.22;;;17.74;89.08
57048;BME280;42934;54.294;18.598;2023-09-12T01:04:17;100513.41;;;17.81;88.96
57048;BME280;42934;54.294;18.598;2023-09-12T01:07:03;100515.41;;;17.78;89.10
57048;BME280;42934;54.294;18.598;2023-09-12T01:09:33;100517.38;;;17.74;89.07
57048;BME280;42934;54.294;18.598;2023-09-12T01:12:03;100509.69;;;17.69;89.35
57048;BME280;42934;54.294;18.598;2023-09-12T01:14:32;100513.97;;;17.72;89.26
57048;BME280;42934;54.294;18.598;2023-09-12T01:17:03;100510.16;;;17.76;89.06
57048;BME280;42934;54.294;18.598;2023-09-12T01:19:32;100511.31;;;17.72;88.96
57048;BME280;42934;54.294;18.598;2023-09-12T01:25:42;100510.16;;;17.76;88.87
57048;BME280;42934;54.294;18.598;2023-09-12T01:28:17;100511.69;;;17.80;88.77
57048;BME280;42934;54.294;18.598;2023-09-12T01:30:48;100515.00;;;17.84;88.57
57048;BME280;42934;54.294;18.598;2023-09-12T01:33:18;100512.63;;;17.79;88.68
57048;BME280;42934;54.294;18.598;2023-09-12T01:35:47;100516.25;;;17.78;88.65
57048;BME280;42934;54.294;18.598;2023-09-12T01:38:17;100507.44;;;17.78;88.65
57048;BME280;42934;54.294;18.598;2023-09-12T01:40:48;100506.56;;;17.77;88.58
57048;BME280;42934;54.294;18.598;2023-09-12T01:43:22;100511.88;;;17.77;88.52
57048;BME280;42934;54.294;18.598;2023-09-12T01:45:54;100494.59;;;17.70;88.65
57048;BME280;42934;54.294;18.598;2023-09-12T01:48:26;100502.19;;;17.76;88.82
57048;BME280;42934;54.294;18.598;2023-09-12T01:51:01;100516.41;;;17.75;88.98
57048;BME280;42934;54.294;18.598;2023-09-12T01:53:33;100512.91;;;17.75;89.11
57048;BME280;42934;54.294;18.598;2023-09-12T01:56:04;100518.22;;;17.75;88.94
57048;BME280;42934;54.294;18.598;2023-09-12T01:58:34;100514.44;;;17.79;89.00
57048;BME280;42934;54.294;18.598;2023-09-12T02:01:04;100517.94;;;17.79;88.91
57048;BME280;42934;54.294;18.598;2023-09-12T02:03:33;100508.72;;;17.85;88.63
57048;BME280;42934;54.294;18.598;2023-09-12T02:06:03;100511.19;;;17.88;88.57
57048;BME280;42934;54.294;18.598;2023-09-12T02:08:32;100510.44;;;17.86;88.46
57048;BME280;42934;54.294;18.598;2023-09-12T02:11:01;100505.34;;;17.83;88.56
57048;BME280;42934;54.294;18.598;2023-09-12T02:13:31;100506.06;;;17.85;88.76
57048;BME280;42934;54.294;18.598;2023-09-12T02:16:02;100512.16;;;17.87;88.50
57048;BME280;42934;54.294;18.598;2023-09-12T02:18:32;100514.91;;;17.85;88.30
57048;BME280;42934;54.294;18.598;2023-09-12T02:21:01;100508.53;;;17.88;88.30
57048;BME280;42934;54.294;18.598;2023-09-12T02:23:30;100507.47;;;17.90;88.19
57048;BME280;42934;54.294;18.598;2023-09-12T02:25:59;100512.72;;;17.92;87.83
57048;BME280;42934;54.294;18.598;2023-09-12T02:28:29;100506.63;;;17.90;87.83
57048;BME280;42934;54.294;18.598;2023-09-12T02:30:58;100510.13;;;17.90;87.48
57048;BME280;42934;54.294;18.598;2023-09-12T02:33:29;100503.31;;;17.86;87.29
57048;BME280;42934;54.294;18.598;2023-09-12T02:35:58;100502.56;;;17.84;87.04
57048;BME280;42934;54.294;18.598;2023-09-12T02:38:27;100506.66;;;17.76;87.04
57048;BME280;42934;54.294;18.598;2023-09-12T02:40:57;100512.47;;;17.68;87.11
57048;BME280;42934;54.294;18.598;2023-09-12T02:43:26;100518.72;;;17.67;87.09
57048;BME280;42934;54.294;18.598;2023-09-12T02:45:55;100517.41;;;17.60;87.27
57048;BME280;42934;54.294;18.598;2023-09-12T02:48:25;100511.66;;;17.53;87.15
57048;BME280;42934;54.294;18.598;2023-09-12T02:50:55;100520.75;;;17.49;87.37
57048;BME280;42934;54.294;18.598;2023-09-12T02:53:25;100527.28;;;17.43;87.14
57048;BME280;42934;54.294;18.598;2023-09-12T02:55:54;100521.31;;;17.40;87.68
57048;BME280;42934;54.294;18.598;2023-09-12T02:58:23;100517.72;;;17.41;87.08
57048;BME280;42934;54.294;18.598;2023-09-12T03:00:52;100520.38;;;17.41;86.95
57048;BME280;42934;54.294;18.598;2023-09-12T03:03:23;100521.31;;;17.40;86.93
57048;BME280;42934;54.294;18.598;2023-09-12T03:05:59;100518.03;;;17.36;86.86
57048;BME280;42934;54.294;18.598;2023-09-12T03:08:29;100513.94;;;17.31;86.72
57048;BME280;42934;54.294;18.598;2023-09-12T03:10:58;100516.03;;;17.25;86.94
57048;BME280;42934;54.294;18.598;2023-09-12T03:13:30;100521.66;;;17.21;87.39
57048;BME280;42934;54.294;18.598;2023-09-12T03:15:59;100523.34;;;17.22;87.45
57048;BME280;42934;54.294;18.598;2023-09-12T03:18:28;100523.06;;;17.27;87.49
57048;BME280;42934;54.294;18.598;2023-09-12T03:21:00;100516.16;;;17.24;87.61
57048;BME280;42934;54.294;18.598;2023-09-12T03:23:29;100518.50;;;17.29;87.73
57048;BME280;42934;54.294;18.598;2023-09-12T03:26:01;100518.69;;;17.25;88.04
57048;BME280;42934;54.294;18.598;2023-09-12T03:28:30;100514.53;;;17.21;88.18
57048;BME280;42934;54.294;18.598;2023-09-12T03:31:05;100516.88;;;17.12;88.58
57048;BME280;42934;54.294;18.598;2023-09-12T03:33:36;100513.97;;;17.16;88.69
57048;BME280;42934;54.294;18.598;2023-09-12T03:36:07;100511.56;;;17.12;88.89
57048;BME280;42934;54.294;18.598;2023-09-12T03:38:37;100522.28;;;17.10;89.02
57048;BME280;42934;54.294;18.598;2023-09-12T03:41:06;100515.19;;;17.11;88.91
57048;BME280;42934;54.294;18.598;2023-09-12T03:43:37;100513.50;;;17.10;88.44
57048;BME280;42934;54.294;18.598;2023-09-12T03:46:06;100513.75;;;17.05;88.26
57048;BME280;42934;54.294;18.598;2023-09-12T03:48:35;100512.44;;;16.98;88.03
57048;BME280;42934;54.294;18.598;2023-09-12T03:51:06;100512.72;;;16.93;87.86
57048;BME280;42934;54.294;18.598;2023-09-12T03:53:36;100514.97;;;16.85;88.01
57048;BME280;42934;54.294;18.598;2023-09-12T03:56:05;100513.94;;;16.88;87.55
57048;BME280;42934;54.294;18.598;2023-09-12T03:58:34;100511.28;;;16.88;87.38
57048;BME280;42934;54.294;18.598;2023-09-12T04:01:03;100514.91;;;16.87;87.61
57048;BME280;42934;54.294;18.598;2023-09-12T04:03:33;100518.59;;;16.84;88.20
57048;BME280;42934;54.294;18.598;2023-09-12T04:06:02;100515.28;;;16.80;88.41
57048;BME280;42934;54.294;18.598;2023-09-12T04:08:33;100510.25;;;16.76;88.12
57048;BME280;42934;54.294;18.598;2023-09-12T04:11:02;100518.19;;;16.76;88.52
57048;BME280;42934;54.294;18.598;2023-09-12T04:13:31;100516.22;;;16.79;88.93
57048;BME280;42934;54.294;18.598;2023-09-12T04:16:00;100514.66;;;16.75;88.81
57048;BME280;42934;54.294;18.598;2023-09-12T04:18:30;100510.50;;;16.71;88.99
57048;BME280;42934;54.294;18.598;2023-09-12T04:20:59;100510.50;;;16.71;89.11
57048;BME280;42934;54.294;18.598;2023-09-12T04:23:29;100511.72;;;16.66;89.26
57048;BME280;42934;54.294;18.598;2023-09-12T04:25:59;100500.09;;;16.68;89.48
57048;BME280;42934;54.294;18.598;2023-09-12T04:28:32;100506.31;;;16.67;89.31
57048;BME280;42934;54.294;18.598;2023-09-12T04:31:02;100505.47;;;16.67;89.67
57048;BME280;42934;54.294;18.598;2023-09-12T04:33:32;100498.34;;;16.67;89.53
57048;BME280;42934;54.294;18.598;2023-09-12T04:36:01;100506.31;;;16.67;89.35
57048;BME280;42934;54.294;18.598;2023-09-12T04:38:31;100499.59;;;16.62;89.31
57048;BME280;42934;54.294;18.598;2023-09-12T04:41:03;100502.16;;;16.63;89.71
57048;BME280;42934;54.294;18.598;2023-09-12T04:43:33;100492.50;;;16.62;89.82
57048;BME280;42934;54.294;18.598;2023-09-12T04:46:02;100500.28;;;16.65;89.88
57048;BME280;42934;54.294;18.598;2023-09-12T04:48:32;100495.63;;;16.69;89.73
57048;BME280;42934;54.294;18.598;2023-09-12T04:51:01;100484.72;;;16.73;89.27
57048;BME280;42934;54.294;18.598;2023-09-12T04:53:31;100496.06;;;16.77;88.97
57048;BME280;42934;54.294;18.598;2023-09-12T04:56:05;100493.28;;;16.78;88.73
57048;BME280;42934;54.294;18.598;2023-09-12T04:58:37;100498.41;;;16.82;88.82
57048;BME280;42934;54.294;18.598;2023-09-12T05:01:07;100497.47;;;16.83;88.63
57048;BME280;42934;54.294;18.598;2023-09-12T05:03:37;100503.63;;;16.83;88.84
57048;BME280;42934;54.294;18.598;2023-09-12T05:06:06;100506.94;;;16.87;88.96
57048;BME280;42934;54.294;18.598;2023-09-12T05:08:36;100512.06;;;16.90;88.72
57048;BME280;42934;54.294;18.598;2023-09-12T05:11:06;100509.34;;;16.91;89.14
57048;BME280;42934;54.294;18.598;2023-09-12T05:13:36;100510.06;;;16.93;89.41
57048;BME280;42934;54.294;18.598;2023-09-12T05:16:06;100516.03;;;16.97;89.19
57048;BME280;42934;54.294;18.598;2023-09-12T05:18:35;100515.84;;;17.00;89.37
57048;BME280;42934;54.294;18.598;2023-09-12T05:21:05;100512.91;;;17.05;89.51
57048;BME280;42934;54.294;18.598;2023-09-12T05:23:34;100513.50;;;17.10;89.57
57048;BME280;42934;54.294;18.598;2023-09-12T05:26:03;100515.00;;;17.14;89.77
57048;BME280;42934;54.294;18.598;2023-09-12T05:28:34;100517.38;;;17.18;90.46
57048;BME280;42934;54.294;18.598;2023-09-12T05:31:03;100516.22;;;17.22;91.15
57048;BME280;42934;54.294;18.598;2023-09-12T05:33:35;100513.19;;;17.29;91.32
57048;BME280;42934;54.294;18.598;2023-09-12T05:36:04;100512.78;;;17.35;91.34
57048;BME280;42934;54.294;18.598;2023-09-12T05:38:34;100515.19;;;17.39;91.71
57048;BME280;42934;54.294;18.598;2023-09-12T05:41:03;100515.75;;;17.44;92.28
57048;BME280;42934;54.294;18.598;2023-09-12T05:43:34;100509.19;;;17.50;92.17
57048;BME280;42934;54.294;18.598;2023-09-12T05:46:03;100516.84;;;17.55;92.60
57048;BME280;42934;54.294;18.598;2023-09-12T05:48:33;100505.94;;;17.59;93.23
57048;BME280;42934;54.294;18.598;2023-09-12T05:51:02;100511.72;;;17.66;93.02
57048;BME280;42934;54.294;18.598;2023-09-12T05:53:31;100511.50;;;17.69;93.31
57048;BME280;42934;54.294;18.598;2023-09-12T05:56:00;100514.72;;;17.74;93.08
57048;BME280;42934;54.294;18.598;2023-09-12T05:58:30;100514.34;;;17.80;94.01
57048;BME280;42934;54.294;18.598;2023-09-12T06:01:01;100517.38;;;17.88;93.90
57048;BME280;42934;54.294;18.598;2023-09-12T06:03:31;100516.97;;;17.95;94.61
57048;BME280;42934;54.294;18.598;2023-09-12T06:06:00;100517.41;;;18.01;95.11
57048;BME280;42934;54.294;18.598;2023-09-12T06:08:30;100513.38;;;18.08;94.80
57048;BME280;42934;54.294;18.598;2023-09-12T06:10:59;100510.53;;;18.11;95.74
57048;BME280;42934;54.294;18.598;2023-09-12T06:13:28;100510.09;;;18.17;94.82
57048;BME280;42934;54.294;18.598;2023-09-12T06:15:58;100515.88;;;18.24;93.61
57048;BME280;42934;54.294;18.598;2023-09-12T06:18:28;100519.19;;;18.28;92.80
57048;BME280;42934;54.294;18.598;2023-09-12T06:20:59;100514.31;;;18.34;91.94
57048;BME280;42934;54.294;18.598;2023-09-12T06:23:30;100519.00;;;18.44;91.22
57048;BME280;42934;54.294;18.598;2023-09-12T06:25:59;100514.97;;;18.51;91.18
57048;BME280;42934;54.294;18.598;2023-09-12T06:28:29;100507.34;;;18.59;90.80
57048;BME280;42934;54.294;18.598;2023-09-12T06:31:01;100513.94;;;18.66;90.90
57048;BME280;42934;54.294;18.598;2023-09-12T06:33:32;100513.44;;;18.74;90.97
57048;BME280;42934;54.294;18.598;2023-09-12T06:36:01;100508.44;;;18.82;90.48
57048;BME280;42934;54.294;18.598;2023-09-12T06:38:32;100514.19;;;18.89;89.83
57048;BME280;42934;54.294;18.598;2023-09-12T06:41:01;100508.22;;;18.98;90.17
57048;BME280;42934;54.294;18.598;2023-09-12T06:43:32;100507.88;;;19.02;89.03
57048;BME280;42934;54.294;18.598;2023-09-12T06:46:01;100508.19;;;19.11;88.52
57048;BME280;42934;54.294;18.598;2023-09-12T06:48:31;100501.38;;;19.19;88.24
57048;BME280;42934;54.294;18.598;2023-09-12T06:51:04;100514.03;;;19.28;86.89
57048;BME280;42934;54.294;18.598;2023-09-12T06:53:42;100504.00;;;19.32;85.52
57048;BME280;42934;54.294;18.598;2023-09-12T06:56:11;100509.19;;;19.46;85.48
57048;BME280;42934;54.294;18.598;2023-09-12T06:58:40;100510.56;;;19.52;84.81
57048;BME280;42934;54.294;18.598;2023-09-12T07:01:10;100511.94;;;19.58;84.24
57048;BME280;42934;54.294;18.598;2023-09-12T07:03:41;100512.03;;;19.69;83.80
57048;BME280;42934;54.294;18.598;2023-09-12T07:06:10;100515.00;;;19.77;83.49
57048;BME280;42934;54.294;18.598;2023-09-12T07:08:40;100508.38;;;19.83;84.46
57048;BME280;42934;54.294;18.598;2023-09-12T07:11:09;100514.09;;;19.89;82.89
57048;BME280;42934;54.294;18.598;2023-09-12T07:13:39;100509.16;;;19.96;80.52
57048;BME280;42934;54.294;18.598;2023-09-12T07:16:11;100517.09;;;20.09;81.82
57048;BME280;42934;54.294;18.598;2023-09-12T07:18:42;100508.75;;;20.13;80.85
57048;BME280;42934;54.294;18.598;2023-09-12T07:21:11;100517.13;;;20.20;81.73
57048;BME280;42934;54.294;18.598;2023-09-12T07:23:41;100511.34;;;20.26;80.37
57048;BME280;42934;54.294;18.598;2023-09-12T07:26:13;100508.84;;;20.36;81.06
57048;BME280;42934;54.294;18.598;2023-09-12T07:28:43;100516.38;;;20.42;80.79
57048;BME280;42934;54.294;18.598;2023-09-12T07:31:12;100516.50;;;20.52;83.93
57048;BME280;42934;54.294;18.598;2023-09-12T07:33:43;100522.03;;;20.61;81.14
57048;BME280;42934;54.294;18.598;2023-09-12T07:36:13;100518.03;;;20.67;81.24
57048;BME280;42934;54.294;18.598;2023-09-12T07:38:43;100518.31;;;20.75;80.91
57048;BME280;42934;54.294;18.598;2023-09-12T07:41:13;100516.88;;;20.82;80.71
57048;BME280;42934;54.294;18.598;2023-09-12T07:43:42;100516.16;;;20.92;80.60
57048;BME280;42934;54.294;18.598;2023-09-12T07:46:12;100519.78;;;21.02;81.43
57048;BME280;42934;54.294;18.598;2023-09-12T07:48:44;100518.22;;;21.10;79.24
57048;BME280;42934;54.294;18.598;2023-09-12T07:51:14;100526.34;;;21.20;79.46
57048;BME280;42934;54.294;18.598;2023-09-12T07:53:46;100520.16;;;21.31;79.40
57048;BME280;42934;54.294;18.598;2023-09-12T07:56:15;100527.34;;;21.42;81.76
57048;BME280;42934;54.294;18.598;2023-09-12T07:58:44;100512.91;;;21.44;80.31
57048;BME280;42934;54.294;18.598;2023-09-12T08:01:13;100516.75;;;21.51;81.91
57048;BME280;42934;54.294;18.598;2023-09-12T08:03:44;100521.50;;;21.59;82.42
57048;BME280;42934;54.294;18.598;2023-09-12T08:06:15;100529.03;;;21.65;80.74
57048;BME280;42934;54.294;18.598;2023-09-12T08:08:45;100517.69;;;21.73;81.69
57048;BME280;42934;54.294;18.598;2023-09-12T08:11:14;100518.75;;;21.82;81.28
57048;BME280;42934;54.294;18.598;2023-09-12T08:13:45;100527.75;;;21.92;81.78
57048;BME280;42934;54.294;18.598;2023-09-12T08:16:14;100531.47;;;22.00;82.40
57048;BME280;42934;54.294;18.598;2023-09-12T08:18:45;100533.25;;;22.11;78.72
57048;BME280;42934;54.294;18.598;2023-09-12T08:21:15;100530.19;;;22.27;77.32
57048;BME280;42934;54.294;18.598;2023-09-12T08:23:44;100538.03;;;22.40;76.74
57048;BME280;42934;54.294;18.598;2023-09-12T08:26:13;100532.47;;;22.53;77.26
57048;BME280;42934;54.294;18.598;2023-09-12T08:28:43;100544.69;;;22.66;78.16
57048;BME280;42934;54.294;18.598;2023-09-12T08:31:12;100537.84;;;22.74;77.16
57048;BME280;42934;54.294;18.598;2023-09-12T08:33:42;100541.41;;;22.84;76.21
57048;BME280;42934;54.294;18.598;2023-09-12T08:36:13;100540.63;;;22.93;76.10
57048;BME280;42934;54.294;18.598;2023-09-12T08:38:42;100544.63;;;22.99;76.09
57048;BME280;42934;54.294;18.598;2023-09-12T08:41:11;100542.69;;;23.01;76.10
57048;BME280;42934;54.294;18.598;2023-09-12T08:43:41;100545.78;;;23.06;76.17
57048;BME280;42934;54.294;18.598;2023-09-12T08:46:11;100542.75;;;23.20;76.31
57048;BME280;42934;54.294;18.598;2023-09-12T08:48:42;100536.94;;;23.36;73.37
57048;BME280;42934;54.294;18.598;2023-09-12T08:51:13;100536.78;;;23.38;72.97
57048;BME280;42934;54.294;18.598;2023-09-12T08:54:08;100532.03;;;23.51;73.91
57048;BME280;42934;54.294;18.598;2023-09-12T08:56:39;100536.13;;;23.65;73.34
57048;BME280;42934;54.294;18.598;2023-09-12T08:59:10;100525.06;;;23.79;70.97
57048;BME280;42934;54.294;18.598;2023-09-12T09:01:41;100533.44;;;23.95;67.95
57048;BME280;42934;54.294;18.598;2023-09-12T09:04:11;100533.31;;;24.07;66.04
57048;BME280;42934;54.294;18.598;2023-09-12T09:06:42;100524.53;;;24.14;63.22
57048;BME280;42934;54.294;18.598;2023-09-12T09:09:13;100538.94;;;24.23;65.46
57048;BME280;42934;54.294;18.598;2023-09-12T09:11:42;100525.94;;;24.28;66.65
57048;BME280;42934;54.294;18.598;2023-09-12T09:14:11;100532.72;;;24.32;66.25
57048;BME280;42934;54.294;18.598;2023-09-12T09:16:41;100526.66;;;24.40;65.54
57048;BME280;42934;54.294;18.598;2023-09-12T09:19:10;100521.59;;;24.46;64.42
57048;BME280;42934;54.294;18.598;2023-09-12T09:21:41;100530.78;;;24.54;64.12
57048;BME280;42934;54.294;18.598;2023-09-12T09:24:12;100527.50;;;24.60;62.27
57048;BME280;42934;54.294;18.598;2023-09-12T09:26:44;100523.81;;;24.70;61.65
57048;BME280;42934;54.294;18.598;2023-09-12T09:29:16;100525.47;;;24.81;61.98
57048;BME280;42934;54.294;18.598;2023-09-12T09:31:46;100518.97;;;24.84;63.58
57048;BME280;42934;54.294;18.598;2023-09-12T09:34:17;100518.25;;;24.91;58.51
57048;BME280;42934;54.294;18.598;2023-09-12T09:36:50;100509.63;;;24.98;58.69
57048;BME280;42934;54.294;18.598;2023-09-12T09:39:22;100512.81;;;25.11;57.99
57048;BME280;42934;54.294;18.598;2023-09-12T09:41:53;100516.03;;;25.24;58.12
57048;BME280;42934;54.294;18.598;2023-09-12T09:44:24;100521.78;;;25.29;56.06
57048;BME280;42934;54.294;18.598;2023-09-12T09:47:00;100517.94;;;25.42;54.34
57048;BME280;42934;54.294;18.598;2023-09-12T09:49:33;100513.94;;;25.46;54.23
57048;BME280;42934;54.294;18.598;2023-09-12T09:52:05;100518.13;;;25.58;54.41
57048;BME280;42934;54.294;18.598;2023-09-12T09:54:35;100516.84;;;25.62;54.24
57048;BME280;42934;54.294;18.598;2023-09-12T09:57:05;100511.84;;;25.67;58.19
57048;BME280;42934;54.294;18.598;2023-09-12T09:59:34;100513.25;;;25.71;54.48
57048;BME280;42934;54.294;18.598;2023-09-12T10:02:04;100514.47;;;25.77;54.23
57048;BME280;42934;54.294;18.598;2023-09-12T10:04:39;100502.97;;;25.85;54.29
57048;BME280;42934;54.294;18.598;2023-09-12T10:07:14;100500.22;;;25.94;50.44
57048;BME280;42934;54.294;18.598;2023-09-12T10:09:45;100500.22;;;25.94;51.29
57048;BME280;42934;54.294;18.598;2023-09-12T10:12:15;100487.31;;;25.98;51.81
57048;BME280;42934;54.294;18.598;2023-09-12T10:14:44;100494.69;;;25.96;50.62
57048;BME280;42934;54.294;18.598;2023-09-12T10:17:19;100484.00;;;26.04;50.97
57048;BME280;42934;54.294;18.598;2023-09-12T10:19:55;100489.59;;;26.11;50.12
57048;BME280;42934;54.294;18.598;2023-09-12T10:22:30;100485.91;;;26.12;49.79
57048;BME280;42934;54.294;18.598;2023-09-12T10:25:01;100489.59;;;26.11;50.86
57048;BME280;42934;54.294;18.598;2023-09-12T10:27:31;100487.84;;;26.19;48.73
57048;BME280;42934;54.294;18.598;2023-09-12T10:30:06;100486.19;;;26.26;48.46
57048;BME280;42934;54.294;18.598;2023-09-12T10:32:39;100484.91;;;26.31;48.70
57048;BME280;42934;54.294;18.598;2023-09-12T10:35:09;100482.59;;;26.36;49.52
57048;BME280;42934;54.294;18.598;2023-09-12T10:37:42;100476.25;;;26.45;47.85
57048;BME280;42934;54.294;18.598;2023-09-12T10:40:16;100473.25;;;26.48;49.03
57048;BME280;42934;54.294;18.598;2023-09-12T10:42:52;100471.97;;;26.52;48.11
57048;BME280;42934;54.294;18.598;2023-09-12T10:45:25;100474.19;;;26.57;46.88
57048;BME280;42934;54.294;18.598;2023-09-12T10:47:54;100476.56;;;26.60;46.90
57048;BME280;42934;54.294;18.598;2023-09-12T10:50:24;100476.75;;;26.66;47.57
57048;BME280;42934;54.294;18.598;2023-09-12T10:52:54;100473.44;;;26.72;47.36
57048;BME280;42934;54.294;18.598;2023-09-12T10:55:24;100474.97;;;26.75;48.17
57048;BME280;42934;54.294;18.598;2023-09-12T10:58:02;100465.03;;;26.76;48.79
57048;BME280;42934;54.294;18.598;2023-09-12T11:00:32;100465.88;;;26.76;46.08
57048;BME280;42934;54.294;18.598;2023-09-12T11:03:36;100467.13;;;26.90;47.14
57048;BME280;42934;54.294;18.598;2023-09-12T11:06:20;100464.13;;;26.93;47.50
57048;BME280;42934;54.294;18.598;2023-09-12T11:09:21;100463.78;;;26.96;47.37
57048;BME280;42934;54.294;18.598;2023-09-12T11:11:57;100464.16;;;27.01;46.68
57048;BME280;42934;54.294;18.598;2023-09-12T11:14:27;100463.31;;;27.01;46.23
57048;BME280;42934;54.294;18.598;2023-09-12T11:17:22;100470.75;;;27.07;47.96
57048;BME280;42934;54.294;18.598;2023-09-12T11:19:52;100467.75;;;27.10;46.30
57048;BME280;42934;54.294;18.598;2023-09-12T11:22:23;100463.00;;;27.12;48.88
57048;BME280;42934;54.294;18.598;2023-09-12T11:24:54;100466.59;;;27.12;46.33
57048;BME280;42934;54.294;18.598;2023-09-12T11:27:30;100462.03;;;27.13;49.48
57048;BME280;42934;54.294;18.598;2023-09-12T11:30:04;100468.66;;;27.18;46.53
57048;BME280;42934;54.294;18.598;2023-09-12T11:32:36;100465.31;;;27.25;45.60
57048;BME280;42934;54.294;18.598;2023-09-12T11:35:07;100471.72;;;27.32;45.99
57048;BME280;42934;54.294;18.598;2023-09-12T11:37:37;100470.41;;;27.36;46.33
57048;BME280;42934;54.294;18.598;2023-09-12T11:40:22;100468.22;;;27.39;45.90
57048;BME280;42934;54.294;18.598;2023-09-12T11:42:52;100466.22;;;27.42;47.48
57048;BME280;42934;54.294;18.598;2023-09-12T11:45:21;100467.38;;;27.39;46.99
57048;BME280;42934;54.294;18.598;2023-09-12T11:47:51;100470.75;;;27.49;46.26
57048;BME280;42934;54.294;18.598;2023-09-12T11:50:28;100466.06;;;27.51;45.37
57048;BME280;42934;54.294;18.598;2023-09-12T11:53:02;100471.81;;;27.56;45.04
57048;BME280;42934;54.294;18.598;2023-09-12T11:55:35;100471.16;;;27.62;45.68
57048;BME280;42934;54.294;18.598;2023-09-12T11:58:07;100474.00;;;27.61;45.29
57048;BME280;42934;54.294;18.598;2023-09-12T12:00:37;100471.16;;;27.62;45.86
57048;BME280;42934;54.294;18.598;2023-09-12T12:03:06;100467.44;;;27.63;46.04
57048;BME280;42934;54.294;18.598;2023-09-12T12:05:36;100466.25;;;27.66;45.03
57048;BME280;42934;54.294;18.598;2023-09-12T12:08:10;100459.69;;;27.69;44.86
57048;BME280;42934;54.294;18.598;2023-09-12T12:11:00;100469.13;;;27.73;45.29
57048;BME280;42934;54.294;18.598;2023-09-12T12:13:32;100461.72;;;27.75;45.36
57048;BME280;42934;54.294;18.598;2023-09-12T12:16:15;100468.16;;;27.82;44.45
57048;BME280;42934;54.294;18.598;2023-09-12T12:18:44;100467.19;;;27.83;44.25
57048;BME280;42934;54.294;18.598;2023-09-12T12:21:14;100468.84;;;27.84;45.12
57048;BME280;42934;54.294;18.598;2023-09-12T12:23:44;100469.34;;;27.88;45.11
57048;BME280;42934;54.294;18.598;2023-09-12T12:26:15;100471.72;;;27.91;43.75
57048;BME280;42934;54.294;18.598;2023-09-12T12:28:44;100472.22;;;27.94;45.88
57048;BME280;42934;54.294;18.598;2023-09-12T12:31:13;100473.94;;;27.95;45.49
57048;BME280;42934;54.294;18.598;2023-09-12T12:33:47;100468.00;;;28.00;44.57
57048;BME280;42934;54.294;18.598;2023-09-12T12:36:41;100470.56;;;28.01;44.71
57048;BME280;42934;54.294;18.598;2023-09-12T12:39:24;100467.19;;;28.07;44.38
57048;BME280;42934;54.294;18.598;2023-09-12T12:41:55;100464.97;;;28.03;43.40
57048;BME280;42934;54.294;18.598;2023-09-12T12:44:33;100465.16;;;28.10;44.50
57048;BME280;42934;54.294;18.598;2023-09-12T12:47:09;100459.78;;;28.10;44.23
57048;BME280;42934;54.294;18.598;2023-09-12T12:49:40;100457.91;;;28.10;44.03
57048;BME280;42934;54.294;18.598;2023-09-12T12:52:10;100454.19;;;28.11;43.24
57048;BME280;42934;54.294;18.598;2023-09-12T12:54:42;100457.56;;;28.13;44.65
57048;BME280;42934;54.294;18.598;2023-09-12T12:57:13;100457.22;;;28.16;43.94
57048;BME280;42934;54.294;18.598;2023-09-12T12:59:48;100441.38;;;28.21;42.63
57048;BME280;42934;54.294;18.598;2023-09-12T13:02:18;100446.09;;;28.19;43.77
57048;BME280;42934;54.294;18.598;2023-09-12T13:04:48;100446.94;;;28.20;44.73